MUHATNCM

Guest
Details From MUHA - La Havane Jose Marti Intl
To TNCM - St Maarten - Princess Juliana Intl
Flight Number -
Tags Decoded
Created
Modified
Stats Distance 5,910 nm / 10,946 km
Max Altitude 0 ft / 0 m
Waypoints 11
Social Downloads 1
Likes 0
Share VATSIM

Download

Looking for another format? Having issues loading an existing format? Contact us
Advertisement - Login to hide

Notes

Decoded

Route

MUHA UCM POBIN PISOS UT09 KATOK BQN STT COY GOUDA TNCM

ID Type Via Altitude Latitude Longitude Leg Dist Tot Dist Heading (true) Name
O MUHA APT - 0 ft / 0 m 22.97863˚ -82.42494˚ - 0 nm - -
UCM VOR - 0 ft / 0 m 21.43744˚ -77.80084˚ 273 nm 273 nm 109° / 111° CAMAGUEY VOR-DME
POBIN FIX - 0 ft / 0 m 19.39500˚ -70.95722˚ 404 nm 677 nm 106° / 109° -
PISOS FIX - 0 ft / 0 m 20.08733˚ -70.16369˚ 61 nm 738 nm 47° / 47° -
UT09 APT - 0 ft / 0 m 39.48128˚ -110.15430˚ 2360 nm 3099 nm 308° / 288° Tavapats Ranch
KATOK FIX - 0 ft / 0 m 18.83076˚ -68.00000˚ 2503 nm 5602 nm 107° / 129° -
BQN VOR - 0 ft / 0 m 18.49800˚ -67.10836˚ 54 nm 5657 nm 111° / 112° BORINQUEN VORTAC
STT VOR - 0 ft / 0 m 18.35581˚ -65.02456˚ 119 nm 5776 nm 94° / 94° ST THOMAS VOR-DME
COY VOR - 0 ft / 0 m 17.73444˚ -64.70072˚ 41 nm 5818 nm 154° / 154° ST CROIX VOR-DME
GOUDA FIX - 0 ft / 0 m 17.93402˚ -63.66667˚ 60 nm 5878 nm 78° / 79° -
O TNCM APT - 0 ft / 0 m 18.03937˚ -63.11961˚ 31 nm 5910 nm 78° / 79° -

Altitude Profile

Advertisement - Login to hide

Weather


0- 5 10 15 20 25 30 35+ Temperature / ° C

Clouds and Precipitation
Forecast for 2017-12-14 18:00 UTC. Updated 2 hours ago

Ground ~20,000 ft ~40,000 ft Winds

MUHA

Details ICAO MUHA (HAV)
Name Havana Jose Marti Intl
Region Cuba
Timezone America/Havana (UTC-5.0)
Stats Elevation 209 ft / 64 m (AMSL)
Location 22.989154° -82.409086°
Runways 1
Magnetic Variation 4.908° W

METAR

MUHA 141855Z 03006KT 310V070 9000 SCT035 25/15 Q1017

Decode

TAF

Not found

Departure Runways

ID Width Length Bearing (true) Bearing (mag) Surface Threshold Offset Overrun Length
06 148 ft / 45 m 13,133 ft / 4,003 m 54.21° 59.12° Asphalt 0 ft / 0 m 476 ft / 145 m
24 148 ft / 45 m 13,133 ft / 4,003 m 234.23° 239.14° Asphalt 0 ft / 0 m 197 ft / 60 m

TNCM

Details ICAO TNCM (SXM)
Name St Maarten - Princess Juliana Intl
Region Caribbean Netherlands, Aruba, Curaçao, Sint Maarten
Timezone Unknown (UTC+0.0)
Stats Elevation 12 ft / 4 m (AMSL)
Location 18.040889° -63.108974°
Runways 1
Magnetic Variation 14.325° W

METAR

TNCM 141900Z 09007KT 050V140 9999 SCT020 29/20 Q1016 A3001 NOSIG

Decode

TAF

TAF TNCM 141738Z 1418/1518 11008KT P6SM SCT022 FM142200 08012KT P6SM FEW022 FM151200 06017KT P6SM VCSH FEW020 SCT040

Decode

Destination Runways

ID Width Length Bearing (true) Bearing (mag) Surface Threshold Offset Overrun Length
10 148 ft / 45 m 7,464 ft / 2,275 m 81.43° 95.76° Asphalt 0 ft / 0 m 151 ft / 46 m
28 148 ft / 45 m 7,464 ft / 2,275 m 261.44° 275.77° Asphalt 397 ft / 121 m 0 ft / 0 m

Popular Alternatives